Time;durP1;ratioP1;P1;durP2;ratioP2;P2;SDS_P1;SDS_P2;PMS_P1;PMS_P2;Temp;Humidity;BMP_temperature;BMP_pressure;BME280_temperature;BME280_humidity;BME280_pressure;Samples;Min_cycle;Max_cycle;Signal;HPM_P1;HPM_P2
2021/11/21 00:00:50;;;;;;;23.53;18.23;;;10.60;1.00;;;;;;5074784;28;20438;-78
2021/11/21 00:03:18;;;;;;;22.67;17.90;;;10.60;1.00;;;;;;5064590;28;21646;-78
2021/11/21 00:05:45;;;;;;;23.20;17.13;;;10.70;1.00;;;;;;5066198;28;20453;-80
2021/11/21 00:08:14;;;;;;;29.50;21.00;;;10.60;1.00;;;;;;5062273;28;20458;-79
2021/11/21 00:10:42;;;;;;;23.63;17.87;;;10.60;1.00;;;;;;5047397;28;20435;-80
2021/11/21 00:13:09;;;;;;;27.07;19.73;;;10.60;1.00;;;;;;5063927;28;20449;-79
2021/11/21 00:15:40;;;;;;;28.23;19.23;;;10.60;1.00;;;;;;5065734;28;20471;-78
2021/11/21 00:18:09;;;;;;;25.97;18.83;;;10.60;1.00;;;;;;5062158;28;20473;-81
2021/11/21 00:20:36;;;;;;;23.70;19.20;;;10.50;1.00;;;;;;5063120;28;20448;-80
2021/11/21 00:23:03;;;;;;;24.50;17.90;;;10.50;1.00;;;;;;5055323;28;20519;-79
2021/11/21 00:25:33;;;;;;;23.93;18.50;;;10.50;1.00;;;;;;5064641;28;20510;-81
2021/11/21 00:28:00;;;;;;;23.30;19.53;;;10.50;1.00;;;;;;5065239;28;20458;-80
2021/11/21 00:30:27;;;;;;;24.30;18.20;;;10.60;1.00;;;;;;5063551;28;20524;-79
2021/11/21 00:32:54;;;;;;;24.40;18.90;;;10.60;1.00;;;;;;5066513;28;20467;-80
2021/11/21 00:35:22;;;;;;;25.10;19.17;;;10.60;1.00;;;;;;5065807;28;20457;-78
2021/11/21 00:37:49;;;;;;;26.87;20.53;;;10.60;1.00;;;;;;5069735;28;20450;-79
2021/11/21 00:40:16;;;;;;;23.67;18.47;;;10.60;1.00;;;;;;5063896;28;21094;-78
2021/11/21 00:42:45;;;;;;;22.63;17.97;;;10.60;1.00;;;;;;5072367;28;20471;-79
2021/11/21 00:45:12;;;;;;;23.40;16.90;;;10.60;1.00;;;;;;5066853;28;20442;-77
2021/11/21 00:47:40;;;;;;;23.83;17.30;;;10.60;1.00;;;;;;5073018;28;20455;-79
2021/11/21 00:50:09;;;;;;;23.60;17.30;;;10.60;1.00;;;;;;5064546;28;20443;-80
2021/11/21 00:52:37;;;;;;;23.53;18.40;;;10.50;1.00;;;;;;5066690;28;20462;-79
2021/11/21 00:55:10;;;;;;;25.67;18.63;;;10.50;1.00;;;;;;5064837;28;21356;-77
2021/11/21 00:57:38;;;;;;;27.27;18.80;;;10.50;1.00;;;;;;5064574;28;20473;-81
2021/11/21 01:00:09;;;;;;;23.80;16.90;;;10.50;1.00;;;;;;5061810;28;20538;-79
2021/11/21 01:02:38;;;;;;;25.70;18.20;;;10.50;1.00;;;;;;5060780;28;20463;-80
2021/11/21 01:05:06;;;;;;;27.17;20.40;;;10.50;1.00;;;;;;5052673;28;20438;-79
2021/11/21 01:07:36;;;;;;;22.83;17.00;;;10.50;1.00;;;;;;5044469;28;20459;-78
2021/11/21 01:10:06;;;;;;;23.33;17.30;;;10.50;1.00;;;;;;5042583;28;20508;-79
2021/11/21 01:12:33;;;;;;;26.43;18.50;;;10.50;1.00;;;;;;5061173;28;20447;-77
2021/11/21 01:15:01;;;;;;;22.03;17.20;;;10.50;1.00;;;;;;5059701;28;20432;-80
2021/11/21 01:17:32;;;;;;;23.60;18.23;;;10.40;1.00;;;;;;5060175;28;20601;-80
2021/11/21 01:20:00;;;;;;;25.30;18.10;;;10.40;1.00;;;;;;5059751;28;20442;-79
2021/11/21 01:22:28;;;;;;;24.80;18.33;;;10.50;1.00;;;;;;5059825;28;20549;-80
2021/11/21 01:24:56;;;;;;;23.70;17.23;;;10.50;1.00;;;;;;5061529;28;20471;-78
2021/11/21 01:27:23;;;;;;;21.83;17.50;;;10.50;1.00;;;;;;5060711;28;20474;-79
2021/11/21 01:29:51;;;;;;;21.03;15.77;;;10.50;1.00;;;;;;5059791;28;20451;-80
2021/11/21 01:32:18;;;;;;;24.60;16.87;;;10.40;1.00;;;;;;5046344;28;20454;-79
2021/11/21 01:34:49;;;;;;;24.63;17.20;;;10.30;1.00;;;;;;5059866;28;20452;-78
2021/11/21 01:37:16;;;;;;;23.63;17.60;;;10.30;1.00;;;;;;5066747;28;20452;-80
2021/11/21 01:39:43;;;;;;;22.77;18.30;;;10.30;1.00;;;;;;5064223;28;20439;-80
2021/11/21 01:42:11;;;;;;;21.30;16.40;;;10.30;1.00;;;;;;5070731;28;20574;-77
2021/11/21 01:44:38;;;;;;;23.80;18.03;;;10.40;1.00;;;;;;5063362;28;20962;-77
2021/11/21 01:47:05;;;;;;;25.20;17.60;;;10.40;1.00;;;;;;5066343;28;20439;-78
2021/11/21 01:49:32;;;;;;;25.07;17.30;;;10.30;1.00;;;;;;5065072;28;20440;-79
2021/11/21 01:52:01;;;;;;;22.10;17.58;;;10.30;1.00;;;;;;5065850;28;20462;-79
2021/11/21 01:54:28;;;;;;;20.77;15.57;;;10.30;1.00;;;;;;5067032;28;20216;-80
2021/11/21 01:56:55;;;;;;;22.07;17.00;;;10.30;1.00;;;;;;5065252;28;20261;-78
2021/11/21 01:59:23;;;;;;;22.23;17.30;;;10.30;1.00;;;;;;5069235;28;20530;-80
2021/11/21 02:01:50;;;;;;;20.63;15.50;;;10.30;1.00;;;;;;5065825;28;20453;-77
2021/11/21 02:04:17;;;;;;;24.33;17.67;;;10.30;1.00;;;;;;5063712;28;20438;-78
2021/11/21 02:06:44;;;;;;;22.57;17.13;;;10.30;1.00;;;;;;5066019;28;20427;-78
2021/11/21 02:09:13;;;;;;;21.93;17.17;;;10.30;1.00;;;;;;5049026;28;20450;-79
2021/11/21 02:11:40;;;;;;;20.70;16.57;;;10.30;1.00;;;;;;5063160;28;20529;-80
2021/11/21 02:14:07;;;;;;;18.87;15.50;;;10.30;1.00;;;;;;5061651;28;20465;-80
2021/11/21 02:16:34;;;;;;;23.30;15.77;;;10.30;1.00;;;;;;5062195;28;20473;-78
2021/11/21 02:19:02;;;;;;;21.20;16.50;;;10.30;1.00;;;;;;5060764;28;20460;-78
2021/11/21 02:21:31;;;;;;;23.90;16.93;;;10.30;1.00;;;;;;5064682;28;21010;-77
2021/11/21 02:23:59;;;;;;;21.13;16.77;;;10.30;1.00;;;;;;5056465;28;20441;-78
2021/11/21 02:26:26;;;;;;;23.93;16.20;;;10.30;1.00;;;;;;5056721;28;21378;-78
2021/11/21 02:28:54;;;;;;;20.93;14.97;;;10.30;1.00;;;;;;5057932;28;20461;-78
2021/11/21 02:31:22;;;;;;;21.33;16.07;;;10.30;1.00;;;;;;5053224;28;21016;-78
2021/11/21 02:33:51;;;;;;;21.67;16.67;;;10.20;1.00;;;;;;5054318;28;20458;-78
2021/11/21 02:36:20;;;;;;;22.70;17.20;;;10.20;1.00;;;;;;5055309;28;20443;-77
2021/11/21 02:38:50;;;;;;;24.43;17.70;;;10.20;1.00;;;;;;5055971;28;20444;-78
2021/11/21 02:41:18;;;;;;;22.07;17.23;;;10.20;1.00;;;;;;5060252;28;20414;-79
2021/11/21 02:43:47;;;;;;;23.37;16.67;;;10.20;1.00;;;;;;5060077;28;20407;-80
2021/11/21 02:46:15;;;;;;;23.03;17.83;;;10.20;1.00;;;;;;5059797;28;20443;-78
2021/11/21 02:48:43;;;;;;;20.97;16.03;;;10.20;1.00;;;;;;5055830;28;20396;-78
2021/11/21 02:51:13;;;;;;;23.30;16.90;;;10.30;1.00;;;;;;5056962;28;20470;-80
2021/11/21 02:53:43;;;;;;;25.20;18.20;;;10.20;1.00;;;;;;5061442;28;20465;-78
2021/11/21 02:56:14;;;;;;;24.43;18.20;;;10.20;1.00;;;;;;5055488;28;20497;-78
2021/11/21 02:58:41;;;;;;;23.93;17.93;;;10.20;1.00;;;;;;5060163;28;21769;-78
2021/11/21 03:01:12;;;;;;;25.57;17.30;;;10.20;1.00;;;;;;5056623;28;20459;-79
2021/11/21 03:03:39;;;;;;;26.60;18.50;;;10.20;1.00;;;;;;5058937;28;20462;-80
2021/11/21 03:06:08;;;;;;;25.80;18.77;;;10.20;1.00;;;;;;5062337;28;20456;-78
2021/11/21 03:08:37;;;;;;;21.90;18.57;;;10.20;1.00;;;;;;5060492;28;20758;-77
2021/11/21 03:11:17;;;;;;;26.37;18.70;;;10.20;1.00;;;;;;5059892;28;20514;-80
2021/11/21 03:13:45;;;;;;;25.23;19.00;;;10.20;1.00;;;;;;5061811;28;20491;-79
2021/11/21 03:16:12;;;;;;;28.23;20.77;;;10.20;1.00;;;;;;5065443;28;20480;-78
2021/11/21 03:18:39;;;;;;;25.20;19.37;;;10.20;1.00;;;;;;5058760;28;20487;-77
2021/11/21 03:21:06;;;;;;;25.87;19.37;;;10.20;1.00;;;;;;5057567;28;20462;-78
2021/11/21 03:23:33;;;;;;;25.77;19.50;;;10.20;1.00;;;;;;5057741;28;20446;-78
2021/11/21 03:26:00;;;;;;;25.27;18.30;;;10.20;1.00;;;;;;5063909;28;21238;-78
2021/11/21 03:28:29;;;;;;;30.60;20.83;;;10.20;1.00;;;;;;5059782;28;20466;-77
2021/11/21 03:30:56;;;;;;;24.90;18.80;;;10.20;1.00;;;;;;5060257;28;20450;-79
2021/11/21 03:33:26;;;;;;;29.50;19.40;;;10.20;1.00;;;;;;5063495;28;20584;-78
2021/11/21 03:35:53;;;;;;;25.10;18.70;;;10.20;1.00;;;;;;5060502;28;20455;-77
2021/11/21 03:38:23;;;;;;;26.80;19.00;;;10.20;1.00;;;;;;5055984;28;20472;-78
2021/11/21 03:40:50;;;;;;;26.87;19.63;;;10.20;1.00;;;;;;5060488;28;20446;-77
2021/11/21 03:43:17;;;;;;;25.60;18.90;;;10.20;1.00;;;;;;5059818;28;20469;-80
2021/11/21 03:45:45;;;;;;;24.77;19.23;;;10.20;1.00;;;;;;5060884;28;20451;-79
2021/11/21 03:48:12;;;;;;;27.00;19.27;;;10.20;1.00;;;;;;5040942;28;21162;-79
2021/11/21 03:50:40;;;;;;;26.07;18.70;;;10.20;1.00;;;;;;5064042;28;20566;-77
2021/11/21 03:53:07;;;;;;;25.40;19.13;;;10.20;1.00;;;;;;5067800;28;20617;-78
2021/11/21 03:55:34;;;;;;;26.40;19.90;;;10.20;1.00;;;;;;5060616;28;20449;-78
2021/11/21 03:58:00;;;;;;;26.57;19.57;;;10.20;1.00;;;;;;5057794;28;21180;-80
2021/11/21 04:00:28;;;;;;;24.67;18.00;;;10.10;1.00;;;;;;5063937;28;20472;-78
2021/11/21 04:02:58;;;;;;;24.23;18.63;;;10.10;1.00;;;;;;5060016;28;20472;-79
2021/11/21 04:05:25;;;;;;;27.60;18.87;;;10.10;1.00;;;;;;5062826;28;20460;-79
2021/11/21 04:07:52;;;;;;;27.83;20.00;;;10.10;1.00;;;;;;5063613;28;20444;-79
2021/11/21 04:10:19;;;;;;;27.83;19.90;;;10.10;1.00;;;;;;5051579;28;20463;-80
2021/11/21 04:12:47;;;;;;;28.90;18.93;;;10.10;1.00;;;;;;5060171;28;20489;-78
2021/11/21 04:15:14;;;;;;;24.50;17.97;;;10.00;1.00;;;;;;5059477;28;21045;-80
2021/11/21 04:17:41;;;;;;;26.63;18.80;;;10.10;1.00;;;;;;5058255;28;20463;-78
2021/11/21 04:20:11;;;;;;;25.70;18.10;;;10.10;1.00;;;;;;5062092;28;20570;-80
2021/11/21 04:22:39;;;;;;;30.03;20.50;;;10.00;1.00;;;;;;5059691;28;20448;-79
2021/11/21 04:25:07;;;;;;;27.17;19.50;;;10.00;1.00;;;;;;5061356;28;20512;-79
2021/11/21 04:27:35;;;;;;;28.63;20.20;;;10.00;1.00;;;;;;5058704;28;20457;-79
2021/11/21 04:30:02;;;;;;;27.97;19.77;;;10.10;1.00;;;;;;5057451;28;20602;-80
2021/11/21 04:32:30;;;;;;;26.27;18.40;;;10.10;1.00;;;;;;5059940;28;20440;-79
2021/11/21 04:34:57;;;;;;;29.87;20.00;;;10.10;1.00;;;;;;5062791;28;20436;-79
2021/11/21 04:37:26;;;;;;;27.60;19.57;;;10.10;1.00;;;;;;5066148;28;20877;-78
2021/11/21 04:39:53;;;;;;;28.70;21.40;;;10.10;1.00;;;;;;5061832;28;21773;-79
2021/11/21 04:42:20;;;;;;;24.00;18.80;;;10.10;1.00;;;;;;5062523;28;20473;-81
2021/11/21 04:44:47;;;;;;;25.73;19.40;;;10.10;1.00;;;;;;5054843;28;20455;-79
2021/11/21 04:47:14;;;;;;;26.03;18.43;;;10.10;1.00;;;;;;5065189;28;20413;-80
2021/11/21 04:49:42;;;;;;;26.37;19.97;;;10.00;1.00;;;;;;5067771;28;20449;-79
2021/11/21 04:52:09;;;;;;;26.85;18.13;;;10.00;1.00;;;;;;5066261;28;20458;-79
2021/11/21 04:54:37;;;;;;;25.90;19.53;;;10.00;1.00;;;;;;5065897;28;20232;-79
2021/11/21 04:57:06;;;;;;;25.53;19.20;;;10.00;1.00;;;;;;5064466;28;20468;-80
2021/11/21 04:59:34;;;;;;;25.33;18.10;;;10.00;1.00;;;;;;5053257;28;20578;-77
2021/11/21 05:02:01;;;;;;;27.33;18.77;;;10.00;1.00;;;;;;5061998;28;20460;-80
2021/11/21 05:04:29;;;;;;;27.90;20.67;;;10.00;1.00;;;;;;5067594;28;20605;-80
2021/11/21 05:06:56;;;;;;;28.57;19.50;;;10.00;1.00;;;;;;5062952;28;20454;-79
2021/11/21 05:09:23;;;;;;;27.95;20.15;;;9.90;1.00;;;;;;5062826;28;20461;-80
2021/11/21 05:11:52;;;;;;;33.08;19.50;;;9.90;1.00;;;;;;5063928;28;20225;-79
2021/11/21 05:14:20;;;;;;;26.45;18.23;;;9.80;1.00;;;;;;5062928;28;20221;-78
2021/11/21 05:16:49;;;;;;;26.50;18.43;;;9.80;1.00;;;;;;5062273;28;20647;-80
2021/11/21 05:19:17;;;;;;;28.27;20.13;;;9.80;1.00;;;;;;5053813;28;20450;-80
2021/11/21 05:21:44;;;;;;;28.30;19.37;;;9.80;1.00;;;;;;5065064;28;20461;-80
2021/11/21 05:24:11;;;;;;;27.37;18.97;;;9.80;1.00;;;;;;5064921;28;20527;-78
2021/11/21 05:26:39;;;;;;;24.50;18.20;;;9.80;1.00;;;;;;5066746;28;20425;-79
2021/11/21 05:29:07;;;;;;;28.27;18.83;;;9.80;1.00;;;;;;5071582;28;20446;-81
2021/11/21 05:31:35;;;;;;;27.43;19.37;;;9.80;1.00;;;;;;5064891;28;20441;-77
2021/11/21 05:34:02;;;;;;;28.73;19.43;;;9.70;1.00;;;;;;5062225;28;21015;-78
2021/11/21 05:36:29;;;;;;;25.60;18.60;;;9.70;1.00;;;;;;5062542;28;20443;-79
2021/11/21 05:38:56;;;;;;;27.13;18.17;;;9.70;1.00;;;;;;5065136;28;20477;-79
2021/11/21 05:41:24;;;;;;;24.63;17.57;;;9.70;1.00;;;;;;5065435;28;20448;-80
2021/11/21 05:43:51;;;;;;;27.60;20.00;;;9.70;1.00;;;;;;5048109;28;20457;-81
2021/11/21 05:46:19;;;;;;;26.90;19.13;;;9.80;1.00;;;;;;5070498;28;22740;-80
2021/11/21 05:48:46;;;;;;;25.23;18.20;;;9.80;1.00;;;;;;5068768;28;22230;-79
2021/11/21 05:51:13;;;;;;;25.30;17.20;;;9.80;1.00;;;;;;5062849;28;20461;-78
2021/11/21 05:53:43;;;;;;;23.87;18.20;;;9.80;1.00;;;;;;5064200;28;20512;-78
2021/11/21 05:56:09;;;;;;;24.53;17.60;;;9.80;1.00;;;;;;5061013;28;20528;-78
2021/11/21 05:58:36;;;;;;;25.93;19.07;;;9.80;1.00;;;;;;5061644;28;20810;-80
2021/11/21 06:01:04;;;;;;;27.80;17.80;;;9.70;1.00;;;;;;5059583;28;20454;-78
2021/11/21 06:03:32;;;;;;;25.10;16.93;;;9.70;1.00;;;;;;5061862;28;20453;-80
2021/11/21 06:05:59;;;;;;;23.97;16.87;;;9.70;1.00;;;;;;5060470;28;20422;-81
2021/11/21 06:08:26;;;;;;;21.17;16.70;;;9.60;1.00;;;;;;5057363;28;20479;-79
2021/11/21 06:10:53;;;;;;;23.75;17.63;;;9.60;1.00;;;;;;5065197;28;20442;-78
2021/11/21 06:13:21;;;;;;;24.70;18.30;;;9.60;1.00;;;;;;5072311;28;20228;-77
2021/11/21 06:15:49;;;;;;;23.50;17.03;;;9.60;1.00;;;;;;5088319;28;20384;-78
2021/11/21 06:18:16;;;;;;;26.10;18.27;;;9.60;1.00;;;;;;5084507;28;20530;-77
2021/11/21 06:20:45;;;;;;;21.90;16.87;;;9.70;1.00;;;;;;5083646;28;20511;-78
2021/11/21 06:23:12;;;;;;;23.77;17.70;;;9.70;1.00;;;;;;5080603;28;20432;-77
2021/11/21 06:25:39;;;;;;;23.50;17.37;;;9.70;1.00;;;;;;5075324;28;20476;-78
2021/11/21 06:28:06;;;;;;;22.70;15.53;;;9.60;1.00;;;;;;5081068;28;20457;-78
2021/11/21 06:30:33;;;;;;;25.20;17.05;;;9.60;1.00;;;;;;5071499;28;20460;-78
2021/11/21 06:33:00;;;;;;;23.27;17.10;;;9.60;1.00;;;;;;5069456;28;20224;-80
2021/11/21 06:35:27;;;;;;;20.67;15.50;;;9.60;1.00;;;;;;5061061;28;20460;-80
2021/11/21 06:37:56;;;;;;;25.97;17.67;;;9.50;1.00;;;;;;5067030;28;20856;-78
2021/11/21 06:40:23;;;;;;;24.15;17.20;;;9.50;1.00;;;;;;5062112;28;20457;-80
2021/11/21 06:42:50;;;;;;;21.55;15.70;;;9.50;1.00;;;;;;5064321;28;20226;-80
2021/11/21 06:45:17;;;;;;;25.17;15.97;;;9.50;1.00;;;;;;5059224;28;20224;-78
2021/11/21 06:47:45;;;;;;;25.67;17.75;;;9.50;1.00;;;;;;5060284;28;20459;-78
2021/11/21 06:50:16;;;;;;;22.50;16.30;;;9.50;1.00;;;;;;5061885;28;20212;-78
2021/11/21 06:52:44;;;;;;;24.02;16.45;;;9.50;1.00;;;;;;5067977;28;20238;-78
2021/11/21 06:55:13;;;;;;;22.83;14.90;;;9.50;1.00;;;;;;5076220;28;20488;-78
2021/11/21 06:57:41;;;;;;;22.47;16.37;;;9.60;1.00;;;;;;5063392;28;21527;-79
2021/11/21 07:00:12;;;;;;;20.77;15.57;;;9.60;1.00;;;;;;5069035;28;20454;-78
2021/11/21 07:02:41;;;;;;;24.57;16.63;;;9.60;1.00;;;;;;5066257;28;20496;-84
2021/11/21 07:05:08;;;;;;;21.20;14.47;;;9.60;1.00;;;;;;5051018;28;20447;-77
2021/11/21 07:07:36;;;;;;;24.50;15.23;;;9.60;1.00;;;;;;5073655;28;20444;-80
2021/11/21 07:10:04;;;;;;;20.53;14.27;;;9.60;1.00;;;;;;5070153;28;20451;-78
2021/11/21 07:12:32;;;;;;;21.20;15.03;;;9.60;1.00;;;;;;5066801;28;20462;-81
2021/11/21 07:15:00;;;;;;;21.77;13.97;;;9.70;1.00;;;;;;5064209;28;20482;-77
2021/11/21 07:17:28;;;;;;;20.60;15.63;;;9.70;1.00;;;;;;5069766;28;20525;-78
2021/11/21 07:19:55;;;;;;;25.50;16.40;;;9.70;1.00;;;;;;5066355;28;20437;-78
2021/11/21 07:22:22;;;;;;;20.70;14.30;;;9.70;1.00;;;;;;5070454;28;20440;-78
2021/11/21 07:24:49;;;;;;;20.73;14.13;;;9.70;1.00;;;;;;5064516;28;20526;-79
2021/11/21 07:27:16;;;;;;;21.20;14.17;;;9.70;1.00;;;;;;5072436;28;20453;-78
2021/11/21 07:29:45;;;;;;;22.40;14.07;;;9.60;1.00;;;;;;5066549;28;20442;-79
2021/11/21 07:32:11;;;;;;;20.97;14.90;;;9.60;1.00;;;;;;5066078;28;20252;-79
2021/11/21 07:34:39;;;;;;;19.67;13.50;;;9.60;1.00;;;;;;5061199;28;20694;-79
2021/11/21 07:37:05;;;;;;;25.23;15.77;;;9.60;1.00;;;;;;5070503;28;20459;-79
2021/11/21 07:39:32;;;;;;;21.30;14.27;;;9.60;1.00;;;;;;5062829;28;20232;-78
2021/11/21 07:41:59;;;;;;;21.00;14.00;;;9.60;1.00;;;;;;5064043;28;20232;-79
2021/11/21 07:44:26;;;;;;;21.50;14.85;;;9.60;1.00;;;;;;5068758;28;20462;-78
2021/11/21 07:46:55;;;;;;;21.10;14.98;;;9.60;1.00;;;;;;5065352;28;20235;-80
2021/11/21 07:49:21;;;;;;;22.30;14.55;;;9.60;1.00;;;;;;5064409;28;20231;-79
2021/11/21 07:51:48;;;;;;;24.10;15.83;;;9.60;1.00;;;;;;5048254;28;20243;-80
2021/11/21 07:54:16;;;;;;;23.27;14.90;;;9.50;1.00;;;;;;5071399;28;20483;-80
2021/11/21 07:56:43;;;;;;;20.27;14.93;;;9.60;1.00;;;;;;5047111;28;20882;-80
2021/11/21 07:59:11;;;;;;;24.00;15.50;;;9.50;1.00;;;;;;5063506;28;20284;-79
2021/11/21 08:01:38;;;;;;;24.50;15.83;;;9.50;1.00;;;;;;5065769;28;20441;-81
2021/11/21 08:04:06;;;;;;;24.23;15.97;;;9.40;1.00;;;;;;5076684;28;20456;-81
2021/11/21 08:06:34;;;;;;;23.90;15.43;;;9.40;1.00;;;;;;5071409;28;20477;-81
2021/11/21 08:09:01;;;;;;;23.48;16.38;;;9.40;1.00;;;;;;5083385;28;20462;-79
2021/11/21 08:11:27;;;;;;;25.27;16.10;;;9.30;1.00;;;;;;5072547;28;20216;-80
2021/11/21 08:13:55;;;;;;;25.58;15.30;;;9.30;1.00;;;;;;5073136;28;20423;-81
2021/11/21 08:16:22;;;;;;;27.55;16.45;;;9.20;1.00;;;;;;5076177;28;20941;-82
2021/11/21 08:18:49;;;;;;;23.20;16.10;;;9.20;1.00;;;;;;5077012;28;21100;-79
2021/11/21 08:21:18;;;;;;;22.20;17.98;;;9.20;1.00;;;;;;5054397;28;21035;-78
2021/11/21 08:23:44;;;;;;;28.57;17.20;;;9.10;1.00;;;;;;5071609;28;22538;-78
2021/11/21 08:26:11;;;;;;;27.05;18.40;;;9.10;1.00;;;;;;5083498;28;20470;-80
2021/11/21 08:28:39;;;;;;;25.00;16.98;;;9.10;1.00;;;;;;5072316;28;20296;-80
2021/11/21 08:31:06;;;;;;;25.60;16.47;;;9.10;1.00;;;;;;5071390;28;20219;-78
2021/11/21 08:33:33;;;;;;;24.87;16.37;;;9.10;1.00;;;;;;5073892;28;20456;-80
2021/11/21 08:36:01;;;;;;;25.98;16.35;;;9.10;1.00;;;;;;5070082;28;20459;-79
2021/11/21 08:38:29;;;;;;;24.92;15.77;;;9.10;1.00;;;;;;5075086;28;20244;-78
2021/11/21 08:40:56;;;;;;;30.33;18.07;;;9.10;1.00;;;;;;5084473;28;21191;-81
2021/11/21 08:43:23;;;;;;;25.83;15.33;;;9.10;1.00;;;;;;5076054;28;20463;-81
2021/11/21 08:45:50;;;;;;;25.23;17.45;;;9.10;1.00;;;;;;5063737;28;22002;-80
2021/11/21 08:48:17;;;;;;;24.50;15.90;;;9.10;1.00;;;;;;5067141;28;20716;-81
2021/11/21 08:50:45;;;;;;;27.40;17.10;;;9.00;1.00;;;;;;5067823;28;20454;-80
2021/11/21 08:53:13;;;;;;;25.03;16.13;;;9.00;1.00;;;;;;5074067;28;20217;-78
2021/11/21 08:55:41;;;;;;;23.98;15.43;;;8.90;1.00;;;;;;5066081;28;20446;-79
2021/11/21 08:58:09;;;;;;;25.13;17.13;;;8.90;1.00;;;;;;5071371;28;21153;-79
2021/11/21 09:00:36;;;;;;;24.13;15.38;;;8.90;1.00;;;;;;5070568;28;20219;-80
2021/11/21 09:03:03;;;;;;;23.43;15.30;;;8.90;1.00;;;;;;5067011;28;20973;-81
2021/11/21 09:05:31;;;;;;;27.92;16.27;;;8.90;1.00;;;;;;5067560;28;20455;-82
2021/11/21 09:07:58;;;;;;;25.17;15.85;;;9.00;1.00;;;;;;5071172;28;20687;-81
2021/11/21 09:10:25;;;;;;;22.70;16.33;;;9.00;1.00;;;;;;5076177;28;20456;-80
2021/11/21 09:12:53;;;;;;;26.70;17.03;;;9.00;1.00;;;;;;5070101;28;20450;-79
2021/11/21 09:15:22;;;;;;;24.00;16.67;;;9.00;1.00;;;;;;5071356;28;20465;-81
2021/11/21 09:17:52;;;;;;;23.67;16.00;;;9.00;1.00;;;;;;5065396;28;20452;-80
2021/11/21 09:20:20;;;;;;;25.70;16.77;;;9.00;1.00;;;;;;5064945;28;20872;-77
2021/11/21 09:22:48;;;;;;;22.97;16.53;;;9.10;1.00;;;;;;5059285;28;20552;-79
2021/11/21 09:25:16;;;;;;;21.47;14.70;;;9.10;1.00;;;;;;5059577;28;20463;-82
2021/11/21 09:27:43;;;;;;;21.90;14.53;;;9.00;1.00;;;;;;5061977;28;20455;-78
2021/11/21 09:30:12;;;;;;;25.20;17.10;;;9.10;1.00;;;;;;5061593;28;20447;-78
2021/11/21 09:32:40;;;;;;;25.70;16.33;;;9.10;1.00;;;;;;5061844;28;20443;-80
2021/11/21 09:35:09;;;;;;;23.93;16.00;;;9.20;1.00;;;;;;5054573;28;20845;-78
2021/11/21 09:37:37;;;;;;;22.30;16.07;;;9.20;1.00;;;;;;5054700;28;20453;-78
2021/11/21 09:40:06;;;;;;;21.40;14.57;;;9.20;1.00;;;;;;5060251;28;20507;-78
2021/11/21 09:42:33;;;;;;;20.97;14.10;;;9.20;1.00;;;;;;5068848;28;20415;-78
2021/11/21 09:45:00;;;;;;;22.23;15.73;;;9.20;1.00;;;;;;5044562;28;20475;-78
2021/11/21 09:47:28;;;;;;;23.08;16.77;;;9.20;1.00;;;;;;5060891;28;21210;-78
2021/11/21 09:50:01;;;;;;;19.67;14.40;;;9.10;1.00;;;;;;5061298;28;20237;-79
2021/11/21 09:52:28;;;;;;;25.35;15.32;;;9.20;1.00;;;;;;5051626;28;20455;-79
2021/11/21 09:54:55;;;;;;;20.07;15.67;;;9.20;1.00;;;;;;5057932;28;20254;-79
2021/11/21 09:57:24;;;;;;;22.50;15.50;;;9.30;1.00;;;;;;5055013;28;21184;-78
2021/11/21 10:00:00;;;;;;;22.00;15.63;;;9.30;1.00;;;;;;5051344;28;20445;-79
2021/11/21 10:02:31;;;;;;;19.70;14.60;;;9.30;1.00;;;;;;5058217;28;20307;-78
2021/11/21 10:04:59;;;;;;;23.50;14.98;;;9.20;1.00;;;;;;5061641;28;20471;-79
2021/11/21 10:07:29;;;;;;;23.70;16.07;;;9.20;1.00;;;;;;5058747;28;20219;-78
2021/11/21 10:09:57;;;;;;;21.13;15.00;;;9.20;1.00;;;;;;5062519;28;20559;-78
2021/11/21 10:12:26;;;;;;;21.35;15.88;;;9.20;1.00;;;;;;5057206;28;20446;-80
2021/11/21 10:14:56;;;;;;;21.03;15.03;;;9.20;1.00;;;;;;5047749;28;20219;-79
2021/11/21 10:17:25;;;;;;;23.37;15.60;;;9.20;1.00;;;;;;5057637;28;20708;-79
2021/11/21 10:20:16;;;;;;;22.50;14.27;;;9.20;1.00;;;;;;5043632;28;20456;-78
2021/11/21 10:22:51;;;;;;;19.40;14.03;;;9.30;1.00;;;;;;5061098;28;21117;-78
2021/11/21 10:25:42;;;;;;;23.10;15.67;;;9.30;1.00;;;;;;5046808;28;20466;-78
2021/11/21 10:28:11;;;;;;;21.23;14.65;;;9.40;1.00;;;;;;5064685;28;20467;-79
2021/11/21 10:31:10;;;;;;;20.90;15.60;;;9.30;1.00;;;;;;5048073;28;20413;-78
2021/11/21 10:33:39;;;;;;;23.40;16.90;;;9.40;1.00;;;;;;5063615;28;20466;-79
2021/11/21 10:36:10;;;;;;;22.60;16.70;;;9.50;1.00;;;;;;5058869;28;20454;-79
2021/11/21 10:38:42;;;;;;;20.67;15.43;;;9.40;1.00;;;;;;5067318;28;21314;-79
2021/11/21 10:41:12;;;;;;;20.77;14.70;;;9.40;1.00;;;;;;5066213;28;20444;-79
2021/11/21 10:43:51;;;;;;;19.97;14.70;;;9.40;1.00;;;;;;5061723;28;21545;-79
2021/11/21 10:46:27;;;;;;;22.00;17.03;;;9.40;1.00;;;;;;5060084;28;20942;-78
2021/11/21 10:48:55;;;;;;;19.10;15.00;;;9.50;1.00;;;;;;5064036;28;20431;-79
2021/11/21 10:51:25;;;;;;;22.10;15.10;;;9.50;1.00;;;;;;5068262;28;20479;-81
2021/11/21 10:53:53;;;;;;;20.73;14.87;;;9.40;1.00;;;;;;5066880;28;20510;-81
2021/11/21 10:56:20;;;;;;;18.40;14.63;;;9.40;1.00;;;;;;5064204;28;20429;-80
2021/11/21 10:58:52;;;;;;;19.93;14.63;;;9.40;1.00;;;;;;5047165;28;20467;-80
2021/11/21 11:01:21;;;;;;;22.63;18.13;;;9.40;1.00;;;;;;5064611;28;20450;-80
2021/11/21 11:04:09;;;;;;;22.80;16.60;;;9.40;1.00;;;;;;5068231;28;20489;-80
2021/11/21 11:06:38;;;;;;;20.60;15.43;;;9.50;1.00;;;;;;5068505;28;20451;-80
2021/11/21 11:09:20;;;;;;;19.98;15.52;;;9.50;1.00;;;;;;5062154;28;20584;-81
2021/11/21 11:11:49;;;;;;;22.83;16.03;;;9.60;1.00;;;;;;5060950;28;20213;-80
2021/11/21 11:14:19;;;;;;;19.90;15.57;;;9.60;1.00;;;;;;5045907;28;20465;-80
2021/11/21 11:16:48;;;;;;;22.10;16.30;;;9.70;1.00;;;;;;5073391;28;20451;-80
2021/11/21 11:19:17;;;;;;;19.10;14.87;;;9.70;1.00;;;;;;5068488;28;20446;-81
2021/11/21 11:21:48;;;;;;;22.10;15.43;;;9.70;1.00;;;;;;5073066;28;20475;-81
2021/11/21 11:24:16;;;;;;;19.27;13.13;;;9.70;1.00;;;;;;5068844;28;20474;-82
2021/11/21 11:26:43;;;;;;;19.23;14.23;;;9.70;1.00;;;;;;5076751;28;20426;-81
2021/11/21 11:29:18;;;;;;;19.37;15.20;;;9.70;1.00;;;;;;5060537;28;24148;-81
2021/11/21 11:31:45;;;;;;;20.97;15.27;;;9.80;1.00;;;;;;5068930;28;20416;-81
2021/11/21 11:34:35;;;;;;;16.50;14.60;;;9.80;1.00;;;;;;5066302;28;20417;-81
2021/11/21 11:37:10;;;;;;;18.87;14.53;;;9.90;1.00;;;;;;5060415;28;20467;-81
2021/11/21 11:39:41;;;;;;;18.00;13.33;;;9.90;1.00;;;;;;5063183;28;20454;-80
2021/11/21 11:42:35;;;;;;;18.73;14.20;;;10.00;1.00;;;;;;5060907;28;20453;-81
2021/11/21 11:45:03;;;;;;;18.30;14.07;;;10.00;1.00;;;;;;5065689;28;21822;-80
2021/11/21 11:47:31;;;;;;;16.67;13.23;;;10.00;1.00;;;;;;5063916;28;20442;-80
2021/11/21 11:49:58;;;;;;;16.27;13.47;;;10.00;1.00;;;;;;5041780;28;20530;-80
2021/11/21 11:52:58;;;;;;;19.00;15.40;;;10.00;1.00;;;;;;5052135;28;20571;-80
2021/11/21 11:55:28;;;;;;;19.33;14.20;;;10.00;1.00;;;;;;5068372;28;20506;-80
2021/11/21 11:57:55;;;;;;;18.40;13.70;;;10.00;1.00;;;;;;5061176;28;20463;-79
2021/11/21 12:00:32;;;;;;;17.17;13.80;;;10.00;1.00;;;;;;5062133;28;20475;-80
2021/11/21 12:03:00;;;;;;;18.55;13.48;;;10.10;1.00;;;;;;5062479;28;20446;-79
2021/11/21 12:05:32;;;;;;;18.87;13.80;;;10.20;1.00;;;;;;5064321;28;20229;-83
2021/11/21 12:08:18;;;;;;;16.73;13.93;;;10.20;1.00;;;;;;5063828;28;20447;-79
2021/11/21 12:10:50;;;;;;;16.30;13.77;;;10.20;1.00;;;;;;5060881;28;20467;-79
2021/11/21 12:13:28;;;;;;;18.87;13.80;;;10.20;1.00;;;;;;5048633;28;20535;-80
2021/11/21 12:15:58;;;;;;;16.83;13.17;;;10.20;1.00;;;;;;5068043;28;20426;-82
2021/11/21 12:18:54;;;;;;;16.63;13.23;;;10.20;1.00;;;;;;5073710;28;20471;-79
2021/11/21 12:21:40;;;;;;;17.07;12.90;;;10.10;1.00;;;;;;5053793;28;20509;-80
2021/11/21 12:24:18;;;;;;;17.87;13.67;;;10.00;1.00;;;;;;5072261;28;20463;-80
2021/11/21 12:26:45;;;;;;;15.20;12.10;;;10.00;1.00;;;;;;5069762;28;20549;-81
2021/11/21 12:29:31;;;;;;;19.80;13.83;;;10.10;1.00;;;;;;5075623;28;20850;-81
2021/11/21 12:32:17;;;;;;;16.73;13.30;;;10.10;1.00;;;;;;5072043;28;20512;-81
2021/11/21 12:34:46;;;;;;;18.47;15.40;;;10.20;1.00;;;;;;5074102;28;20459;-82
2021/11/21 12:37:16;;;;;;;18.20;14.93;;;10.20;1.00;;;;;;5067935;28;21461;-81
2021/11/21 12:39:48;;;;;;;17.20;13.33;;;10.20;1.00;;;;;;5067652;28;20519;-81
2021/11/21 12:42:18;;;;;;;19.00;15.23;;;10.20;1.00;;;;;;5067555;28;20450;-82
2021/11/21 12:44:46;;;;;;;16.70;13.50;;;10.20;1.00;;;;;;5065710;28;21279;-82
2021/11/21 12:47:14;;;;;;;16.67;13.80;;;10.30;1.00;;;;;;5064405;28;20457;-82
2021/11/21 12:49:44;;;;;;;14.90;12.80;;;10.30;1.00;;;;;;5080179;28;20454;-82
2021/11/21 12:52:13;;;;;;;16.73;13.30;;;10.40;1.00;;;;;;5096383;28;20419;-81